sensor_id;sensor_type;location;lat;lon;timestamp;pressure;altitude;pressure_sealevel;temperature;humidity
27334;BME280;14817;57.104;-2.094;2024-01-27T00:00:45;100430.75;;;5.83;100.00
27334;BME280;14817;57.104;-2.094;2024-01-27T00:03:11;100435.09;;;5.84;100.00
27334;BME280;14817;57.104;-2.094;2024-01-27T00:05:38;100435.59;;;5.89;100.00
27334;BME280;14817;57.104;-2.094;2024-01-27T00:08:05;100453.69;;;5.84;100.00
27334;BME280;14817;57.104;-2.094;2024-01-27T00:10:32;100449.59;;;5.91;100.00
27334;BME280;14817;57.104;-2.094;2024-01-27T00:12:58;100453.69;;;5.84;100.00
27334;BME280;14817;57.104;-2.094;2024-01-27T00:15:25;100468.44;;;5.88;100.00
27334;BME280;14817;57.104;-2.094;2024-01-27T00:17:52;100462.88;;;5.80;100.00
27334;BME280;14817;57.104;-2.094;2024-01-27T00:20:19;100468.47;;;5.77;100.00
27334;BME280;14817;57.104;-2.094;2024-01-27T00:22:45;100488.72;;;5.78;100.00
27334;BME280;14817;57.104;-2.094;2024-01-27T00:25:12;100483.56;;;5.77;100.00
27334;BME280;14817;57.104;-2.094;2024-01-27T00:27:39;100481.50;;;5.80;100.00
27334;BME280;14817;57.104;-2.094;2024-01-27T00:30:06;100487.19;;;5.87;100.00
27334;BME280;14817;57.104;-2.094;2024-01-27T00:32:33;100497.19;;;5.83;100.00
27334;BME280;14817;57.104;-2.094;2024-01-27T00:35:00;100513.88;;;5.85;100.00
27334;BME280;14817;57.104;-2.094;2024-01-27T00:37:27;100519.19;;;5.85;100.00
27334;BME280;14817;57.104;-2.094;2024-01-27T00:39:54;100513.63;;;5.88;100.00
27334;BME280;14817;57.104;-2.094;2024-01-27T00:42:21;100517.25;;;5.87;100.00
27334;BME280;14817;57.104;-2.094;2024-01-27T00:44:51;100505.91;;;5.85;100.00
27334;BME280;14817;57.104;-2.094;2024-01-27T00:47:18;100505.06;;;5.85;100.00
27334;BME280;14817;57.104;-2.094;2024-01-27T00:49:45;100505.53;;;5.79;100.00
27334;BME280;14817;57.104;-2.094;2024-01-27T00:52:11;100499.13;;;5.81;100.00
27334;BME280;14817;57.104;-2.094;2024-01-27T00:54:39;100493.06;;;5.90;100.00
27334;BME280;14817;57.104;-2.094;2024-01-27T00:57:06;100504.81;;;5.88;100.00
27334;BME280;14817;57.104;-2.094;2024-01-27T00:59:32;100497.56;;;5.90;100.00
27334;BME280;14817;57.104;-2.094;2024-01-27T01:01:59;100493.44;;;5.86;100.00
27334;BME280;14817;57.104;-2.094;2024-01-27T01:04:26;100496.22;;;5.84;100.00
27334;BME280;14817;57.104;-2.094;2024-01-27T01:06:53;100488.59;;;5.91;100.00
27334;BME280;14817;57.104;-2.094;2024-01-27T01:09:20;100489.69;;;5.88;100.00
27334;BME280;14817;57.104;-2.094;2024-01-27T01:11:46;100492.13;;;5.80;100.00
27334;BME280;14817;57.104;-2.094;2024-01-27T01:14:13;100489.69;;;5.88;100.00
27334;BME280;14817;57.104;-2.094;2024-01-27T01:16:40;100493.06;;;5.90;100.00
27334;BME280;14817;57.104;-2.094;2024-01-27T01:19:07;100495.28;;;5.85;100.00
27334;BME280;14817;57.104;-2.094;2024-01-27T01:21:34;100492.84;;;5.82;100.00
27334;BME280;14817;57.104;-2.094;2024-01-27T01:24:02;100485.13;;;5.79;100.00
27334;BME280;14817;57.104;-2.094;2024-01-27T01:26:28;100489.72;;;5.77;100.00
27334;BME280;14817;57.104;-2.094;2024-01-27T01:28:55;100487.06;;;5.77;100.00
27334;BME280;14817;57.104;-2.094;2024-01-27T01:31:22;100492.47;;;5.76;100.00
27334;BME280;14817;57.104;-2.094;2024-01-27T01:33:48;100494.31;;;5.75;100.00
27334;BME280;14817;57.104;-2.094;2024-01-27T01:36:15;100513.63;;;5.77;100.00
27334;BME280;14817;57.104;-2.094;2024-01-27T01:38:42;100518.84;;;5.79;100.00
27334;BME280;14817;57.104;-2.094;2024-01-27T01:41:09;100521.72;;;5.76;100.00
27334;BME280;14817;57.104;-2.094;2024-01-27T01:43:36;100524.25;;;5.77;100.00
27334;BME280;14817;57.104;-2.094;2024-01-27T01:46:03;100523.16;;;5.80;100.00
27334;BME280;14817;57.104;-2.094;2024-01-27T01:48:31;100515.53;;;5.86;100.00
27334;BME280;14817;57.104;-2.094;2024-01-27T01:50:58;100506.84;;;5.84;100.00
27334;BME280;14817;57.104;-2.094;2024-01-27T01:53:26;100507.84;;;5.83;100.00
27334;BME280;14817;57.104;-2.094;2024-01-27T01:55:53;100498.38;;;5.90;100.00
27334;BME280;14817;57.104;-2.094;2024-01-27T01:58:20;100498.53;;;5.89;100.00
27334;BME280;14817;57.104;-2.094;2024-01-27T02:00:46;100497.56;;;5.90;100.00
27334;BME280;14817;57.104;-2.094;2024-01-27T02:03:13;100499.50;;;5.99;100.00
27334;BME280;14817;57.104;-2.094;2024-01-27T02:05:40;100490.44;;;6.02;100.00
27334;BME280;14817;57.104;-2.094;2024-01-27T02:08:07;100482.97;;;5.96;100.00
27334;BME280;14817;57.104;-2.094;2024-01-27T02:10:35;100485.97;;;6.02;100.00
27334;BME280;14817;57.104;-2.094;2024-01-27T02:13:26;100479.81;;;6.02;100.00
27334;BME280;14817;57.104;-2.094;2024-01-27T02:15:53;100482.47;;;6.02;100.00
27334;BME280;14817;57.104;-2.094;2024-01-27T02:18:19;100491.41;;;6.01;100.00
27334;BME280;14817;57.104;-2.094;2024-01-27T02:20:47;100483.44;;;6.01;100.00
27334;BME280;14817;57.104;-2.094;2024-01-27T02:23:14;100478.56;;;6.06;100.00
27334;BME280;14817;57.104;-2.094;2024-01-27T02:25:41;100479.56;;;6.05;100.00
27334;BME280;14817;57.104;-2.094;2024-01-27T02:28:07;100476.91;;;6.05;100.00
27334;BME280;14817;57.104;-2.094;2024-01-27T02:30:34;100480.41;;;6.05;100.00
27334;BME280;14817;57.104;-2.094;2024-01-27T02:33:01;100493.13;;;6.02;100.00
27334;BME280;14817;57.104;-2.094;2024-01-27T02:35:28;100498.50;;;6.11;100.00
27334;BME280;14817;57.104;-2.094;2024-01-27T02:37:55;100505.88;;;6.08;100.00
27334;BME280;14817;57.104;-2.094;2024-01-27T02:40:21;100507.59;;;6.09;100.00
27334;BME280;14817;57.104;-2.094;2024-01-27T02:42:48;100512.19;;;6.07;100.00
27334;BME280;14817;57.104;-2.094;2024-01-27T02:45:15;100522.94;;;6.05;100.00
27334;BME280;14817;57.104;-2.094;2024-01-27T02:47:42;100524.50;;;6.08;100.00
27334;BME280;14817;57.104;-2.094;2024-01-27T02:50:09;100527.66;;;6.02;100.00
27334;BME280;14817;57.104;-2.094;2024-01-27T02:52:36;100528.63;;;6.01;100.00
27334;BME280;14817;57.104;-2.094;2024-01-27T02:55:02;100538.31;;;6.02;100.00
27334;BME280;14817;57.104;-2.094;2024-01-27T02:57:29;100534.66;;;6.03;100.00
27334;BME280;14817;57.104;-2.094;2024-01-27T02:59:56;100550.63;;;6.03;100.00
27334;BME280;14817;57.104;-2.094;2024-01-27T03:02:23;100545.28;;;6.14;100.00
27334;BME280;14817;57.104;-2.094;2024-01-27T03:04:50;100544.53;;;6.12;100.00
27334;BME280;14817;57.104;-2.094;2024-01-27T03:07:16;100548.41;;;6.08;100.00
27334;BME280;14817;57.104;-2.094;2024-01-27T03:09:43;100560.03;;;6.07;100.00
27334;BME280;14817;57.104;-2.094;2024-01-27T03:12:10;100566.19;;;6.07;100.00
27334;BME280;14817;57.104;-2.094;2024-01-27T03:14:37;100552.91;;;6.07;100.00
27334;BME280;14817;57.104;-2.094;2024-01-27T03:17:04;100560.03;;;6.07;100.00
27334;BME280;14817;57.104;-2.094;2024-01-27T03:19:31;100558.81;;;6.11;100.00
27334;BME280;14817;57.104;-2.094;2024-01-27T03:21:58;100554.34;;;6.11;100.00
27334;BME280;14817;57.104;-2.094;2024-01-27T03:24:24;100551.56;;;6.13;100.00
27334;BME280;14817;57.104;-2.094;2024-01-27T03:26:51;100545.03;;;6.17;100.00
27334;BME280;14817;57.104;-2.094;2024-01-27T03:29:18;100544.31;;;6.15;100.00
27334;BME280;14817;57.104;-2.094;2024-01-27T03:31:44;100547.22;;;6.12;100.00
27334;BME280;14817;57.104;-2.094;2024-01-27T03:34:11;100552.66;;;6.10;100.00
27334;BME280;14817;57.104;-2.094;2024-01-27T03:36:38;100556.06;;;6.12;100.00
27334;BME280;14817;57.104;-2.094;2024-01-27T03:39:05;100551.06;;;6.08;100.00
27334;BME280;14817;57.104;-2.094;2024-01-27T03:41:32;100545.41;;;6.12;100.00
27334;BME280;14817;57.104;-2.094;2024-01-27T03:43:58;100561.00;;;6.06;100.00
27334;BME280;14817;57.104;-2.094;2024-01-27T03:46:25;100553.50;;;6.11;100.00
27334;BME280;14817;57.104;-2.094;2024-01-27T03:48:52;100558.72;;;6.12;100.00
27334;BME280;14817;57.104;-2.094;2024-01-27T03:51:19;100556.91;;;6.13;100.00
27334;BME280;14817;57.104;-2.094;2024-01-27T03:53:46;100559.56;;;6.13;100.00
27334;BME280;14817;57.104;-2.094;2024-01-27T03:56:12;100557.63;;;6.15;100.00
27334;BME280;14817;57.104;-2.094;2024-01-27T03:58:39;100547.81;;;6.16;100.00
27334;BME280;14817;57.104;-2.094;2024-01-27T04:01:06;100549.16;;;6.21;100.00
27334;BME280;14817;57.104;-2.094;2024-01-27T04:03:33;100546.50;;;6.21;100.00
27334;BME280;14817;57.104;-2.094;2024-01-27T04:06:00;100546.88;;;6.17;100.00
27334;BME280;14817;57.104;-2.094;2024-01-27T04:08:32;100550.59;;;6.14;100.00
27334;BME280;14817;57.104;-2.094;2024-01-27T04:10:59;100542.38;;;6.17;100.00
27334;BME280;14817;57.104;-2.094;2024-01-27T04:13:25;100553.03;;;6.17;100.00
27334;BME280;14817;57.104;-2.094;2024-01-27T04:15:52;100552.53;;;6.23;100.00
27334;BME280;14817;57.104;-2.094;2024-01-27T04:18:20;100549.16;;;6.21;100.00
27334;BME280;14817;57.104;-2.094;2024-01-27T04:20:47;100543.56;;;6.24;100.00
27334;BME280;14817;57.104;-2.094;2024-01-27T04:23:15;100545.00;;;6.28;100.00
27334;BME280;14817;57.104;-2.094;2024-01-27T04:25:43;100536.09;;;6.29;100.00
27334;BME280;14817;57.104;-2.094;2024-01-27T04:28:09;100539.69;;;6.28;100.00
27334;BME280;14817;57.104;-2.094;2024-01-27T04:30:38;100535.22;;;6.29;100.00
27334;BME280;14817;57.104;-2.094;2024-01-27T04:33:05;100535.22;;;6.29;100.00
27334;BME280;14817;57.104;-2.094;2024-01-27T04:35:34;100532.69;;;6.27;100.00
27334;BME280;14817;57.104;-2.094;2024-01-27T04:38:01;100531.25;;;6.23;100.00
27334;BME280;14817;57.104;-2.094;2024-01-27T04:40:28;100543.56;;;6.24;100.00
27334;BME280;14817;57.104;-2.094;2024-01-27T04:42:55;100546.94;;;6.26;100.00
27334;BME280;14817;57.104;-2.094;2024-01-27T04:45:22;100554.81;;;6.28;100.00
27334;BME280;14817;57.104;-2.094;2024-01-27T04:47:48;100548.13;;;6.33;100.00
27334;BME280;14817;57.104;-2.094;2024-01-27T04:50:15;100548.13;;;6.33;100.00
27334;BME280;14817;57.104;-2.094;2024-01-27T04:52:42;100541.84;;;6.34;100.00
27334;BME280;14817;57.104;-2.094;2024-01-27T04:55:09;100546.72;;;6.29;100.00
27334;BME280;14817;57.104;-2.094;2024-01-27T04:57:35;100541.13;;;6.32;100.00
27334;BME280;14817;57.104;-2.094;2024-01-27T05:00:02;100536.75;;;6.43;100.00
27334;BME280;14817;57.104;-2.094;2024-01-27T05:02:32;100541.38;;;6.41;100.00
27334;BME280;14817;57.104;-2.094;2024-01-27T05:04:58;100540.38;;;6.42;100.00
27334;BME280;14817;57.104;-2.094;2024-01-27T05:07:25;100542.91;;;6.43;100.00
27334;BME280;14817;57.104;-2.094;2024-01-27T05:09:52;100533.13;;;6.44;100.00
27334;BME280;14817;57.104;-2.094;2024-01-27T05:12:19;100522.47;;;6.44;100.00
27334;BME280;14817;57.104;-2.094;2024-01-27T05:14:45;100514.00;;;6.50;100.00
27334;BME280;14817;57.104;-2.094;2024-01-27T05:17:12;100507.25;;;6.46;100.00
27334;BME280;14817;57.104;-2.094;2024-01-27T05:19:39;100518.25;;;6.41;100.00
27334;BME280;14817;57.104;-2.094;2024-01-27T05:22:06;100520.81;;;6.43;100.00
27334;BME280;14817;57.104;-2.094;2024-01-27T05:24:32;100500.97;;;6.47;100.00
27334;BME280;14817;57.104;-2.094;2024-01-27T05:27:00;100506.78;;;6.41;100.00
27334;BME280;14817;57.104;-2.094;2024-01-27T05:29:30;100495.50;;;6.48;100.00
27334;BME280;14817;57.104;-2.094;2024-01-27T05:31:56;100495.63;;;6.47;100.00
27334;BME280;14817;57.104;-2.094;2024-01-27T05:34:23;100490.78;;;6.52;100.00
27334;BME280;14817;57.104;-2.094;2024-01-27T05:36:50;100491.41;;;6.44;100.00
27334;BME280;14817;57.104;-2.094;2024-01-27T05:39:17;100470.97;;;6.45;100.00
27334;BME280;14817;57.104;-2.094;2024-01-27T05:41:44;100471.69;;;6.47;100.00
27334;BME280;14817;57.104;-2.094;2024-01-27T05:44:10;100462.13;;;6.44;100.00
27334;BME280;14817;57.104;-2.094;2024-01-27T05:46:37;100453.47;;;6.42;100.00
27334;BME280;14817;57.104;-2.094;2024-01-27T05:49:04;100441.44;;;6.48;100.00
27334;BME280;14817;57.104;-2.094;2024-01-27T05:51:31;100434.56;;;6.45;100.00
27334;BME280;14817;57.104;-2.094;2024-01-27T05:53:58;100433.47;;;6.48;100.00
27334;BME280;14817;57.104;-2.094;2024-01-27T05:56:24;100435.69;;;6.43;100.00
27334;BME280;14817;57.104;-2.094;2024-01-27T05:58:51;100430.38;;;6.43;100.00
27334;BME280;14817;57.104;-2.094;2024-01-27T06:01:18;100441.72;;;6.45;100.00
27334;BME280;14817;57.104;-2.094;2024-01-27T06:03:48;100438.78;;;6.48;100.00
27334;BME280;14817;57.104;-2.094;2024-01-27T06:06:15;100442.88;;;6.52;100.00
27334;BME280;14817;57.104;-2.094;2024-01-27T06:08:42;100447.38;;;6.51;100.00
27334;BME280;14817;57.104;-2.094;2024-01-27T06:11:08;100453.03;;;6.58;100.00
27334;BME280;14817;57.104;-2.094;2024-01-27T06:13:36;100446.47;;;6.62;100.00
27334;BME280;14817;57.104;-2.094;2024-01-27T06:16:08;100460.66;;;6.51;100.00
27334;BME280;14817;57.104;-2.094;2024-01-27T06:18:38;100477.22;;;6.55;100.00
27334;BME280;14817;57.104;-2.094;2024-01-27T06:21:05;100466.31;;;6.58;100.00
27334;BME280;14817;57.104;-2.094;2024-01-27T06:23:33;100478.63;;;6.59;100.00
27334;BME280;14817;57.104;-2.094;2024-01-27T06:26:04;100493.66;;;6.60;100.00
27334;BME280;14817;57.104;-2.094;2024-01-27T06:28:30;100494.38;;;6.62;100.00
27334;BME280;14817;57.104;-2.094;2024-01-27T06:30:57;100508.28;;;6.66;100.00
27334;BME280;14817;57.104;-2.094;2024-01-27T06:33:24;100520.75;;;6.54;100.00
27334;BME280;14817;57.104;-2.094;2024-01-27T06:35:51;100523.16;;;6.57;100.00
27334;BME280;14817;57.104;-2.094;2024-01-27T06:38:18;100521.22;;;6.59;100.00
27334;BME280;14817;57.104;-2.094;2024-01-27T06:40:44;100529.56;;;6.54;100.00
27334;BME280;14817;57.104;-2.094;2024-01-27T06:43:12;100532.25;;;6.54;100.00
27334;BME280;14817;57.104;-2.094;2024-01-27T06:45:39;100540.09;;;6.56;100.00
27334;BME280;14817;57.104;-2.094;2024-01-27T06:48:06;100527.78;;;6.55;100.00
27334;BME280;14817;57.104;-2.094;2024-01-27T06:50:33;100538.22;;;6.47;100.00
27334;BME280;14817;57.104;-2.094;2024-01-27T06:53:00;100546.03;;;6.48;100.00
27334;BME280;14817;57.104;-2.094;2024-01-27T06:55:28;100553.44;;;6.45;100.00
27334;BME280;14817;57.104;-2.094;2024-01-27T06:57:54;100552.84;;;6.41;100.00
27334;BME280;14817;57.104;-2.094;2024-01-27T07:00:21;100556.81;;;6.47;100.00
27334;BME280;14817;57.104;-2.094;2024-01-27T07:02:48;100561.66;;;6.42;100.00
27334;BME280;14817;57.104;-2.094;2024-01-27T07:05:15;100565.03;;;6.44;100.00
27334;BME280;14817;57.104;-2.094;2024-01-27T07:07:42;100562.25;;;6.45;100.00
27334;BME280;14817;57.104;-2.094;2024-01-27T07:10:08;100566.13;;;6.41;100.00
27334;BME280;14817;57.104;-2.094;2024-01-27T07:12:35;100558.88;;;6.43;100.00
27334;BME280;14817;57.104;-2.094;2024-01-27T07:15:03;100562.16;;;6.36;100.00
27334;BME280;14817;57.104;-2.094;2024-01-27T07:17:30;100556.34;;;6.42;100.00
27334;BME280;14817;57.104;-2.094;2024-01-27T07:19:57;100565.31;;;6.41;100.00
27334;BME280;14817;57.104;-2.094;2024-01-27T07:22:23;100572.22;;;6.32;100.00
27334;BME280;14817;57.104;-2.094;2024-01-27T07:24:50;100565.19;;;6.31;100.00
27334;BME280;14817;57.104;-2.094;2024-01-27T07:27:18;100560.97;;;6.28;100.00
27334;BME280;14817;57.104;-2.094;2024-01-27T07:29:45;100557.47;;;6.28;100.00
27334;BME280;14817;57.104;-2.094;2024-01-27T07:32:12;100574.66;;;6.24;100.00
27334;BME280;14817;57.104;-2.094;2024-01-27T07:34:42;100566.16;;;6.19;100.00
27334;BME280;14817;57.104;-2.094;2024-01-27T07:37:09;100581.28;;;6.18;100.00
27334;BME280;14817;57.104;-2.094;2024-01-27T07:39:36;100572.94;;;6.23;100.00
27334;BME280;14817;57.104;-2.094;2024-01-27T07:42:03;100576.19;;;6.26;100.00
27334;BME280;14817;57.104;-2.094;2024-01-27T07:44:30;100585.75;;;6.18;100.00
27334;BME280;14817;57.104;-2.094;2024-01-27T07:46:56;100580.81;;;6.24;100.00
27334;BME280;14817;57.104;-2.094;2024-01-27T07:49:23;100584.44;;;6.23;100.00
27334;BME280;14817;57.104;-2.094;2024-01-27T07:51:50;100586.38;;;6.21;100.00
27334;BME280;14817;57.104;-2.094;2024-01-27T07:54:17;100578.13;;;6.24;100.00
27334;BME280;14817;57.104;-2.094;2024-01-27T07:56:44;100571.59;;;6.28;100.00
27334;BME280;14817;57.104;-2.094;2024-01-27T07:59:10;100578.03;;;6.26;100.00
27334;BME280;14817;57.104;-2.094;2024-01-27T08:01:41;100578.13;;;6.24;100.00
27334;BME280;14817;57.104;-2.094;2024-01-27T08:04:07;100569.06;;;6.27;100.00
27334;BME280;14817;57.104;-2.094;2024-01-27T08:06:45;100584.78;;;6.30;100.00
27334;BME280;14817;57.104;-2.094;2024-01-27T08:09:12;100588.06;;;6.22;100.00
27334;BME280;14817;57.104;-2.094;2024-01-27T08:11:39;100574.72;;;6.33;100.00
27334;BME280;14817;57.104;-2.094;2024-01-27T08:14:05;100592.88;;;6.28;100.00
27334;BME280;14817;57.104;-2.094;2024-01-27T08:16:32;100591.28;;;6.37;100.00
27334;BME280;14817;57.104;-2.094;2024-01-27T08:18:59;100584.31;;;6.36;100.00
27334;BME280;14817;57.104;-2.094;2024-01-27T08:21:26;100580.91;;;6.34;100.00
27334;BME280;14817;57.104;-2.094;2024-01-27T08:23:53;100583.94;;;6.41;100.00
27334;BME280;14817;57.104;-2.094;2024-01-27T08:26:21;100586.59;;;6.41;100.00
27334;BME280;14817;57.104;-2.094;2024-01-27T08:28:48;100582.94;;;6.42;100.00
27334;BME280;14817;57.104;-2.094;2024-01-27T08:31:15;100568.09;;;6.39;100.00
27334;BME280;14817;57.104;-2.094;2024-01-27T08:33:42;100574.00;;;6.43;100.00
27334;BME280;14817;57.104;-2.094;2024-01-27T08:36:12;100572.56;;;6.39;100.00
27334;BME280;14817;57.104;-2.094;2024-01-27T08:38:39;100566.63;;;6.35;100.00
27334;BME280;14817;57.104;-2.094;2024-01-27T08:41:06;100566.03;;;6.43;100.00
27334;BME280;14817;57.104;-2.094;2024-01-27T08:43:33;100558.28;;;6.40;100.00
27334;BME280;14817;57.104;-2.094;2024-01-27T08:45:59;100557.44;;;6.39;100.00
27334;BME280;14817;57.104;-2.094;2024-01-27T08:48:26;100552.22;;;6.49;100.00
27334;BME280;14817;57.104;-2.094;2024-01-27T08:50:53;100536.50;;;6.46;100.00
27334;BME280;14817;57.104;-2.094;2024-01-27T08:53:20;100541.44;;;6.50;100.00
27334;BME280;14817;57.104;-2.094;2024-01-27T08:55:48;100538.78;;;6.50;100.00
27334;BME280;14817;57.104;-2.094;2024-01-27T08:58:14;100521.22;;;6.59;100.00
27334;BME280;14817;57.104;-2.094;2024-01-27T09:00:41;100503.84;;;6.76;100.00
27334;BME280;14817;57.104;-2.094;2024-01-27T09:03:08;100484.88;;;6.69;100.00
27334;BME280;14817;57.104;-2.094;2024-01-27T09:05:35;100477.06;;;6.68;100.00
27334;BME280;14817;57.104;-2.094;2024-01-27T09:08:02;100485.16;;;6.66;100.00
27334;BME280;14817;57.104;-2.094;2024-01-27T09:10:29;100489.66;;;6.66;100.00
27334;BME280;14817;57.104;-2.094;2024-01-27T09:12:56;100486.84;;;6.67;100.00
27334;BME280;14817;57.104;-2.094;2024-01-27T09:15:23;100478.94;;;6.77;100.00
27334;BME280;14817;57.104;-2.094;2024-01-27T09:17:50;100470.44;;;6.83;100.00
27334;BME280;14817;57.104;-2.094;2024-01-27T09:20:16;100458.09;;;6.82;100.00
27334;BME280;14817;57.104;-2.094;2024-01-27T09:22:43;100460.75;;;6.82;100.00
27334;BME280;14817;57.104;-2.094;2024-01-27T09:25:13;100469.22;;;6.87;100.00
27334;BME280;14817;57.104;-2.094;2024-01-27T09:27:41;100462.50;;;6.93;100.00
27334;BME280;14817;57.104;-2.094;2024-01-27T09:30:08;100449.34;;;6.91;100.00
27334;BME280;14817;57.104;-2.094;2024-01-27T09:32:35;100438.00;;;6.99;100.00
27334;BME280;14817;57.104;-2.094;2024-01-27T09:35:02;100443.03;;;6.92;100.00
27334;BME280;14817;57.104;-2.094;2024-01-27T09:37:29;100429.84;;;6.91;100.00
27334;BME280;14817;57.104;-2.094;2024-01-27T09:39:56;100431.03;;;6.98;100.00
27334;BME280;14817;57.104;-2.094;2024-01-27T09:42:23;100425.94;;;6.95;100.00
27334;BME280;14817;57.104;-2.094;2024-01-27T09:44:50;100408.09;;;7.07;100.00
27334;BME280;14817;57.104;-2.094;2024-01-27T09:47:18;100399.97;;;7.08;100.00
27334;BME280;14817;57.104;-2.094;2024-01-27T09:49:46;100377.69;;;7.09;100.00
27334;BME280;14817;57.104;-2.094;2024-01-27T09:52:14;100399.78;;;7.00;100.00
27334;BME280;14817;57.104;-2.094;2024-01-27T09:54:41;100395.88;;;7.04;100.00
27334;BME280;14817;57.104;-2.094;2024-01-27T09:57:08;100374.72;;;7.12;100.00
27334;BME280;14817;57.104;-2.094;2024-01-27T09:59:35;100371.09;;;7.13;100.00
27334;BME280;14817;57.104;-2.094;2024-01-27T10:02:02;100368.47;;;7.23;100.00
27334;BME280;14817;57.104;-2.094;2024-01-27T10:04:30;100357.44;;;7.28;100.00
27334;BME280;14817;57.104;-2.094;2024-01-27T10:06:57;100348.44;;;7.29;100.00
27334;BME280;14817;57.104;-2.094;2024-01-27T10:09:25;100335.25;;;7.27;100.00
27334;BME280;14817;57.104;-2.094;2024-01-27T10:11:51;100348.19;;;7.32;100.00
27334;BME280;14817;57.104;-2.094;2024-01-27T10:14:20;100328.97;;;7.38;100.00
27334;BME280;14817;57.104;-2.094;2024-01-27T10:16:47;100321.84;;;7.39;100.00
27334;BME280;14817;57.104;-2.094;2024-01-27T10:19:15;100316.94;;;7.34;100.00
27334;BME280;14817;57.104;-2.094;2024-01-27T10:21:45;100323.25;;;7.43;100.00
27334;BME280;14817;57.104;-2.094;2024-01-27T10:24:12;100306.84;;;7.47;100.00
27334;BME280;14817;57.104;-2.094;2024-01-27T10:26:39;100306.03;;;7.47;100.00
27334;BME280;14817;57.104;-2.094;2024-01-27T10:29:06;100311.78;;;7.52;100.00
27334;BME280;14817;57.104;-2.094;2024-01-27T10:31:33;100299.16;;;7.54;100.00
27334;BME280;14817;57.104;-2.094;2024-01-27T10:34:01;100303.66;;;7.53;100.00
27334;BME280;14817;57.104;-2.094;2024-01-27T10:36:43;100313.31;;;7.54;100.00
27334;BME280;14817;57.104;-2.094;2024-01-27T10:39:18;100305.06;;;7.57;100.00
27334;BME280;14817;57.104;-2.094;2024-01-27T10:41:47;100302.25;;;7.49;100.00
27334;BME280;14817;57.104;-2.094;2024-01-27T10:44:15;100294.66;;;7.54;100.00
27334;BME280;14817;57.104;-2.094;2024-01-27T10:46:48;100288.63;;;7.52;100.00
27334;BME280;14817;57.104;-2.094;2024-01-27T10:49:16;100297.75;;;7.60;100.00
27334;BME280;14817;57.104;-2.094;2024-01-27T10:51:53;100288.94;;;7.69;100.00
27334;BME280;14817;57.104;-2.094;2024-01-27T10:54:23;100278.69;;;7.84;100.00
27334;BME280;14817;57.104;-2.094;2024-01-27T10:56:50;100282.47;;;7.81;100.00
27334;BME280;14817;57.104;-2.094;2024-01-27T10:59:17;100273.94;;;7.87;100.00
27334;BME280;14817;57.104;-2.094;2024-01-27T11:01:46;100278.97;;;8.00;100.00
27334;BME280;14817;57.104;-2.094;2024-01-27T11:04:12;100263.34;;;8.15;100.00
27334;BME280;14817;57.104;-2.094;2024-01-27T11:06:40;100273.75;;;8.08;100.00
27334;BME280;14817;57.104;-2.094;2024-01-27T11:09:09;100280.63;;;8.01;100.00
27334;BME280;14817;57.104;-2.094;2024-01-27T11:11:38;100278.38;;;7.87;100.00
27334;BME280;14817;57.104;-2.094;2024-01-27T11:14:05;100286.97;;;7.90;100.00
27334;BME280;14817;57.104;-2.094;2024-01-27T11:16:32;100289.75;;;7.89;100.00
27334;BME280;14817;57.104;-2.094;2024-01-27T11:18:58;100304.50;;;8.03;100.00
27334;BME280;14817;57.104;-2.094;2024-01-27T11:21:25;100295.50;;;8.13;100.00
27334;BME280;14817;57.104;-2.094;2024-01-27T11:23:52;100307.88;;;8.05;100.00
27334;BME280;14817;57.104;-2.094;2024-01-27T11:26:19;100298.88;;;8.15;100.00
27334;BME280;14817;57.104;-2.094;2024-01-27T11:28:47;100311.09;;;8.18;100.00
27334;BME280;14817;57.104;-2.094;2024-01-27T11:31:16;100319.25;;;8.07;100.00
27334;BME280;14817;57.104;-2.094;2024-01-27T11:33:44;100321.22;;;8.05;100.00
27334;BME280;14817;57.104;-2.094;2024-01-27T11:36:19;100328.78;;;8.09;100.00
27334;BME280;14817;57.104;-2.094;2024-01-27T11:38:47;100317.38;;;8.17;100.00
27334;BME280;14817;57.104;-2.094;2024-01-27T11:41:24;100318.25;;;8.08;100.00
27334;BME280;14817;57.104;-2.094;2024-01-27T11:43:54;100323.72;;;8.16;100.00
27334;BME280;14817;57.104;-2.094;2024-01-27T11:46:22;100294.94;;;8.20;100.00
27334;BME280;14817;57.104;-2.094;2024-01-27T11:48:49;100300.53;;;8.16;100.00
27334;BME280;14817;57.104;-2.094;2024-01-27T11:51:16;100299.72;;;8.26;100.00
27334;BME280;14817;57.104;-2.094;2024-01-27T11:53:45;100285.69;;;8.14;100.00
27334;BME280;14817;57.104;-2.094;2024-01-27T11:56:13;100304.19;;;8.25;100.00
27334;BME280;14817;57.104;-2.094;2024-01-27T11:58:45;100303.94;;;8.09;100.00
27334;BME280;14817;57.104;-2.094;2024-01-27T12:01:12;100298.00;;;8.15;100.00
27334;BME280;14817;57.104;-2.094;2024-01-27T12:03:39;100301.94;;;8.21;100.00
27334;BME280;14817;57.104;-2.094;2024-01-27T12:06:10;100300.41;;;8.18;100.00
27334;BME280;14817;57.104;-2.094;2024-01-27T12:08:40;100293.94;;;8.30;100.00
27334;BME280;14817;57.104;-2.094;2024-01-27T12:11:13;100291.16;;;8.22;100.00
27334;BME280;14817;57.104;-2.094;2024-01-27T12:13:42;100306.53;;;8.38;100.00
27334;BME280;14817;57.104;-2.094;2024-01-27T12:16:09;100294.78;;;8.41;100.00
27334;BME280;14817;57.104;-2.094;2024-01-27T12:18:35;100283.13;;;8.42;100.00
27334;BME280;14817;57.104;-2.094;2024-01-27T12:21:02;100280.84;;;8.47;100.00
27334;BME280;14817;57.104;-2.094;2024-01-27T12:23:29;100265.53;;;8.49;100.00
27334;BME280;14817;57.104;-2.094;2024-01-27T12:25:56;100258.53;;;8.48;100.00
27334;BME280;14817;57.104;-2.094;2024-01-27T12:28:23;100257.53;;;8.49;100.00
27334;BME280;14817;57.104;-2.094;2024-01-27T12:30:50;100251.50;;;8.47;100.00
27334;BME280;14817;57.104;-2.094;2024-01-27T12:33:18;100259.50;;;8.47;100.00
27334;BME280;14817;57.104;-2.094;2024-01-27T12:35:49;100256.72;;;8.38;100.00
27334;BME280;14817;57.104;-2.094;2024-01-27T12:38:19;100271.31;;;8.44;100.00
27334;BME280;14817;57.104;-2.094;2024-01-27T12:40:46;100263.72;;;8.49;100.00